Time;durP1;ratioP1;P1;durP2;ratioP2;P2;SDS_P1;SDS_P2;PMS_P1;PMS_P2;Temp;Humidity;BMP_temperature;BMP_pressure;BME280_temperature;BME280_humidity;BME280_pressure;Samples;Min_cycle;Max_cycle;Signal;HPM_P1;HPM_P2
2023/10/02 00:01:07;;;;;;;;;;;;;;;28.37;84.10;100826.06;5025367;28;66886;-38
2023/10/02 00:03:41;;;;;;;;;;;;;;;28.40;84.94;100831.88;5011636;28;69339;-37
2023/10/02 00:06:16;;;;;;;;;;;;;;;28.45;84.87;100837.53;5012358;28;66985;-37
2023/10/02 00:08:49;;;;;;;;;;;;;;;28.49;84.76;100846.03;5010555;28;69886;-39
2023/10/02 00:11:35;;;;;;;;;;;;;;;28.52;84.96;100841.06;5021324;28;66765;-36
2023/10/02 00:14:26;;;;;;;;;;;;;;;28.54;85.42;100832.75;5018847;28;69901;-39
2023/10/02 00:17:15;;;;;;;;;;;;;;;28.59;85.17;100842.97;5015259;28;67410;-39
2023/10/02 00:19:47;;;;;;;;;;;;;;;28.60;85.15;100845.44;5011994;28;70144;-38
2023/10/02 00:22:41;;;;;;;;;;;;;;;28.64;86.18;100849.41;5014558;28;67032;-38
2023/10/02 00:25:22;;;;;;;;;;;;;;;28.68;86.21;100855.22;5014015;28;70896;-38
2023/10/02 00:27:54;;;;;;;;;;;;;;;28.64;83.88;100859.34;5017708;28;66309;-41
2023/10/02 00:30:36;;;;;;;;;;;;;;;28.63;82.17;100857.69;5024785;28;69914;-41
2023/10/02 00:33:11;;;;;;;;;;;;;;;28.64;80.64;100859.34;5016656;28;65976;-41
2023/10/02 00:35:50;;;;;;;;;;;;;;;28.65;79.89;100867.25;5013727;28;69855;-41
2023/10/02 00:38:20;;;;;;;;;;;;;;;28.66;78.69;100862.66;5002652;28;66028;-42
2023/10/02 00:40:50;;;;;;;;;;;;;;;28.68;78.22;100876.81;5026324;28;69451;-42
2023/10/02 00:43:35;;;;;;;;;;;;;;;28.68;77.51;100877.63;5007432;28;66450;-41
2023/10/02 00:46:06;;;;;;;;;;;;;;;28.70;77.08;100880.13;5025340;28;69934;-41
2023/10/02 00:48:37;;;;;;;;;;;;;;;28.72;76.72;100891.53;5027053;28;67086;-43
2023/10/02 00:51:11;;;;;;;;;;;;;;;28.71;76.68;100882.63;5016482;28;69532;-42
2023/10/02 00:53:46;;;;;;;;;;;;;;;28.73;76.45;100895.91;5014697;28;65652;-41
2023/10/02 00:56:28;;;;;;;;;;;;;;;28.74;76.26;100908.38;5013430;28;69377;-41
2023/10/02 00:59:01;;;;;;;;;;;;;;;28.74;76.02;100911.88;5013415;28;66596;-40
2023/10/02 01:01:32;;;;;;;;;;;;;;;28.74;75.56;100909.19;5017944;28;71146;-42
2023/10/02 01:04:09;;;;;;;;;;;;;;;28.74;75.74;100920.00;5020112;28;66993;-42
2023/10/02 01:06:54;;;;;;;;;;;;;;;28.75;75.47;100926.22;5010300;28;69830;-42
2023/10/02 01:09:27;;;;;;;;;;;;;;;28.76;74.89;100927.06;5008071;28;66145;-41
2023/10/02 01:11:58;;;;;;;;;;;;;;;28.77;75.16;100928.72;5016942;28;69780;-42
2023/10/02 01:14:50;;;;;;;;;;;;;;;28.78;75.02;100930.38;5017825;28;66430;-41
2023/10/02 01:17:22;;;;;;;;;;;;;;;28.78;74.84;100933.06;5005428;28;70623;-41
2023/10/02 01:19:57;;;;;;;;;;;;;;;28.77;74.62;100929.53;5003076;28;66729;-43
2023/10/02 01:22:28;;;;;;;;;;;;;;;28.79;74.24;100934.75;5018729;28;70391;-44
2023/10/02 01:25:13;;;;;;;;;;;;;;;28.79;74.61;100932.88;5020175;28;66232;-43
2023/10/02 01:27:51;;;;;;;;;;;;;;;28.80;74.58;100934.53;5021223;28;70043;-42
2023/10/02 01:30:21;;;;;;;;;;;;;;;28.81;74.02;100943.50;5018052;28;67025;-42
2023/10/02 01:33:11;;;;;;;;;;;;;;;28.81;73.90;100944.31;5020458;28;71202;-42
2023/10/02 01:35:49;;;;;;;;;;;;;;;28.81;74.37;100952.41;5002039;28;65715;-42
2023/10/02 01:38:31;;;;;;;;;;;;;;;28.83;73.82;100960.28;5017391;28;69070;-41
2023/10/02 01:43:39;;;;;;;;;;;;;;;28.83;74.30;100969.22;5016262;28;70683;-41
2023/10/02 01:46:10;;;;;;;;;;;;;;;28.84;73.96;100979.00;5010274;28;65854;-41
2023/10/02 01:48:40;;;;;;;;;;;;;;;28.84;74.06;100992.50;5006793;28;70403;-41
2023/10/02 01:51:32;;;;;;;;;;;;;;;28.85;74.20;100996.84;4998593;28;65618;-40
2023/10/02 01:54:15;;;;;;;;;;;;;;;28.87;74.11;100989.38;5010695;28;70503;-42
2023/10/02 01:56:45;;;;;;;;;;;;;;;28.86;74.03;100987.75;5007233;28;65745;-41
2023/10/02 01:59:19;;;;;;;;;;;;;;;28.87;74.03;100989.38;4976942;28;70210;-41
2023/10/02 02:01:52;;;;;;;;;;;;;;;28.88;73.62;100992.91;5015879;28;66766;-41
2023/10/02 02:04:27;;;;;;;;;;;;;;;28.89;73.81;100997.28;5015500;28;69320;-41
2023/10/02 02:06:57;;;;;;;;;;;;;;;28.89;74.00;100998.13;5005271;28;65539;-41
2023/10/02 02:09:33;;;;;;;;;;;;;;;28.90;73.58;100993.56;5008909;28;70354;-41
2023/10/02 02:12:14;;;;;;;;;;;;;;;28.90;73.92;100999.78;4992157;28;66340;-41
2023/10/02 02:14:51;;;;;;;;;;;;;;;28.90;73.80;100994.38;4992882;28;69953;-42
2023/10/02 02:17:44;;;;;;;;;;;;;;;28.91;73.58;100990.63;5010795;28;65494;-41
2023/10/02 02:20:43;;;;;;;;;;;;;;;28.91;73.68;100996.03;4999139;28;69263;-42
2023/10/02 02:23:07;;;;;;;;;;;;;;;28.91;73.74;100987.94;5006782;28;66132;-42
2023/10/02 02:25:37;;;;;;;;;;;;;;;28.92;73.76;100991.50;5008788;28;70375;-40
2023/10/02 02:28:07;;;;;;;;;;;;;;;28.92;73.74;100992.31;5000424;28;66587;-40
2023/10/02 02:30:40;;;;;;;;;;;;;;;28.92;73.66;101003.13;4999635;28;70725;-42
2023/10/02 02:33:12;;;;;;;;;;;;;;;28.92;73.24;101008.53;4998735;28;65036;-41
2023/10/02 02:35:44;;;;;;;;;;;;;;;28.93;73.47;101010.16;5010826;28;70566;-40
2023/10/02 02:38:16;;;;;;;;;;;;;;;28.92;73.36;101008.53;5010519;28;66875;-41
2023/10/02 02:41:05;;;;;;;;;;;;;;;28.94;73.83;101008.28;5008591;28;70380;-42
2023/10/02 02:43:38;;;;;;;;;;;;;;;28.93;73.33;101004.78;5008341;28;66701;-43
2023/10/02 02:46:08;;;;;;;;;;;;;;;28.93;73.25;101015.56;5013380;28;70534;-40
2023/10/02 02:48:44;;;;;;;;;;;;;;;28.93;73.22;101004.78;5008450;28;66800;-40
2023/10/02 02:51:21;;;;;;;;;;;;;;;28.92;73.25;101013.91;4995385;28;70785;-40
2023/10/02 02:53:52;;;;;;;;;;;;;;;28.92;73.27;101000.41;5018443;28;66479;-42
2023/10/02 02:56:24;;;;;;;;;;;;;;;28.93;73.11;101010.16;5007943;28;68622;-41
2023/10/02 02:58:58;;;;;;;;;;;;;;;28.93;73.22;101004.78;5019340;28;66545;-41
2023/10/02 03:01:29;;;;;;;;;;;;;;;28.92;73.12;101008.53;4993914;28;70598;-41
2023/10/02 03:04:11;;;;;;;;;;;;;;;28.92;73.12;101002.28;5016337;28;65021;-42
2023/10/02 03:06:42;;;;;;;;;;;;;;;28.92;73.17;101003.13;5015109;28;69822;-41
2023/10/02 03:09:23;;;;;;;;;;;;;;;28.92;73.48;100995.00;5015702;28;65069;-42
2023/10/02 03:11:53;;;;;;;;;;;;;;;28.92;73.19;100997.72;5016909;28;68883;-42
2023/10/02 03:14:23;;;;;;;;;;;;;;;28.92;73.63;100991.50;5013800;28;65355;-41
2023/10/02 03:16:52;;;;;;;;;;;;;;;28.92;73.19;100991.50;5020740;28;70298;-42
2023/10/02 03:19:22;;;;;;;;;;;;;;;28.91;73.61;100985.22;5019954;28;66336;-41
2023/10/02 03:22:01;;;;;;;;;;;;;;;28.92;73.36;100991.50;5024619;28;70139;-41
2023/10/02 03:24:33;;;;;;;;;;;;;;;28.91;73.29;100982.53;5024200;28;67106;-40
2023/10/02 03:27:04;;;;;;;;;;;;;;;28.90;73.83;100983.59;5007680;28;69832;-42
2023/10/02 03:29:34;;;;;;;;;;;;;;;28.93;73.87;100987.75;5022682;28;67206;-42
2023/10/02 03:32:05;;;;;;;;;;;;;;;28.92;73.40;100991.50;5015716;28;70824;-43
2023/10/02 03:34:34;;;;;;;;;;;;;;;28.92;73.55;100992.31;5030245;28;65921;-42
2023/10/02 03:37:24;;;;;;;;;;;;;;;28.93;73.35;100985.88;5019223;28;70419;-41
2023/10/02 03:40:00;;;;;;;;;;;;;;;28.93;73.79;100985.88;5020204;28;65472;-41
2023/10/02 03:42:32;;;;;;;;;;;;;;;28.94;73.85;100976.72;5019097;28;69887;-41
2023/10/02 03:45:04;;;;;;;;;;;;;;;28.94;73.87;100974.03;5010506;28;65636;-41
2023/10/02 03:47:35;;;;;;;;;;;;;;;28.94;73.46;100960.50;5018080;28;69930;-41
2023/10/02 03:50:12;;;;;;;;;;;;;;;28.95;73.96;100959.50;5018573;28;66684;-42
2023/10/02 03:53:03;;;;;;;;;;;;;;;28.94;74.04;100957.81;5003868;28;70062;-41
2023/10/02 03:55:33;;;;;;;;;;;;;;;28.96;73.69;100954.94;5019538;28;66962;-41
2023/10/02 03:58:03;;;;;;;;;;;;;;;28.95;74.03;100954.09;5020719;28;69601;-40
2023/10/02 04:00:50;;;;;;;;;;;;;;;28.95;74.21;100948.69;5019965;28;66577;-41
2023/10/02 04:03:20;;;;;;;;;;;;;;;28.96;73.72;100944.94;5018668;28;70295;-40
2023/10/02 04:05:50;;;;;;;;;;;;;;;28.95;73.78;100943.28;5011091;28;65774;-42
2023/10/02 04:10:55;;;;;;;;;;;;;;;28.96;74.28;100939.53;5024906;28;66004;-41
2023/10/02 04:13:32;;;;;;;;;;;;;;;28.95;74.27;100929.78;5018667;28;70314;-42
2023/10/02 04:19:02;;;;;;;;;;;;;;;28.97;74.39;100934.97;5016856;28;70371;-41
2023/10/02 04:21:33;;;;;;;;;;;;;;;28.97;74.31;100929.56;5019329;28;65546;-42
2023/10/02 04:24:09;;;;;;;;;;;;;;;28.98;74.11;100933.94;5015048;28;70678;-41
2023/10/02 04:26:42;;;;;;;;;;;;;;;28.98;74.46;100919.63;5019205;28;66147;-42
2023/10/02 04:29:26;;;;;;;;;;;;;;;28.99;74.00;100923.97;5020046;28;70691;-42
2023/10/02 04:32:12;;;;;;;;;;;;;;;28.99;74.55;100924.81;5013332;28;66379;-41
2023/10/02 04:34:56;;;;;;;;;;;;;;;29.00;73.87;100925.63;5022305;28;69357;-41
2023/10/02 04:37:31;;;;;;;;;;;;;;;29.00;74.37;100944.53;5018646;28;66399;-42
2023/10/02 04:40:14;;;;;;;;;;;;;;;29.01;74.43;100951.63;5020651;28;70368;-41
2023/10/02 04:43:14;;;;;;;;;;;;;;;29.01;73.86;100954.31;5018971;28;67030;-41
2023/10/02 04:45:44;;;;;;;;;;;;;;;29.00;74.32;100949.94;5014080;28;70535;-40
2023/10/02 04:48:16;;;;;;;;;;;;;;;29.00;74.12;100958.03;5015335;28;66413;-40
2023/10/02 04:50:46;;;;;;;;;;;;;;;29.00;74.63;100948.06;5016453;28;70635;-41
2023/10/02 04:55:48;;;;;;;;;;;;;;;29.00;74.55;100912.94;5018478;28;70437;-41
2023/10/02 04:58:27;;;;;;;;;;;;;;;29.00;74.17;100885.13;5020595;28;66912;-42
2023/10/02 05:03:36;;;;;;;;;;;;;;;29.00;74.32;100885.13;5017127;28;66589;-41
2023/10/02 05:06:16;;;;;;;;;;;;;;;28.99;74.71;100883.47;5020823;28;70420;-42
2023/10/02 05:11:26;;;;;;;;;;;;;;;28.98;74.84;100884.53;5020524;28;69875;-41
2023/10/02 05:16:46;;;;;;;;;;;;;;;28.96;74.83;100877.44;5012337;28;69332;-41
2023/10/02 05:19:16;;;;;;;;;;;;;;;28.95;74.78;100865.00;5013977;28;66492;-43
2023/10/02 05:21:55;;;;;;;;;;;;;;;28.95;74.25;100861.47;5011623;28;70606;-42
2023/10/02 05:24:27;;;;;;;;;;;;;;;28.94;74.41;100855.19;5010977;28;67212;-42
2023/10/02 05:26:59;;;;;;;;;;;;;;;28.93;74.82;100853.56;5008912;28;70709;-40
2023/10/02 05:29:41;;;;;;;;;;;;;;;28.93;74.40;100853.56;5013514;28;66687;-42
2023/10/02 05:32:23;;;;;;;;;;;;;;;28.93;74.88;100836.53;4993885;28;71179;-41
2023/10/02 05:37:42;;;;;;;;;;;;;;;28.90;74.70;100835.06;5009539;28;69891;-41
2023/10/02 05:50:59;;;;;;;;;;;;;;;28.86;74.55;100819.47;5013323;28;66880;-41
2023/10/02 05:53:34;;;;;;;;;;;;;;;28.85;74.35;100812.44;5022854;28;70791;-41
2023/10/02 05:56:05;;;;;;;;;;;;;;;28.84;74.53;100811.59;5023849;28;66857;-41
2023/10/02 05:58:36;;;;;;;;;;;;;;;28.83;74.17;100801.81;5020813;28;68943;-42
2023/10/02 06:01:12;;;;;;;;;;;;;;;28.82;74.77;100792.09;5012998;28;66141;-42
2023/10/02 06:03:41;;;;;;;;;;;;;;;28.82;74.64;100792.09;5023529;28;69946;-43
2023/10/02 06:06:21;;;;;;;;;;;;;;;28.81;74.55;100784.22;5019836;28;67373;-41
2023/10/02 06:08:52;;;;;;;;;;;;;;;28.81;74.30;100779.63;5017419;28;70212;-41
2023/10/02 06:11:25;;;;;;;;;;;;;;;28.81;74.29;100774.22;5020042;28;66885;-41
2023/10/02 06:13:57;;;;;;;;;;;;;;;28.80;74.15;100769.84;5026227;28;69633;-41
2023/10/02 06:16:30;;;;;;;;;;;;;;;28.78;74.67;100766.56;5014710;28;66604;-43
2023/10/02 06:19:06;;;;;;;;;;;;;;;28.79;74.73;100762.81;5029780;28;69875;-41
2023/10/02 06:21:45;;;;;;;;;;;;;;;28.79;74.62;100768.22;5008404;28;66395;-41
2023/10/02 06:24:17;;;;;;;;;;;;;;;28.79;74.65;100764.69;5011235;28;70589;-42
2023/10/02 06:26:49;;;;;;;;;;;;;;;28.78;74.77;100763.84;5018891;28;65939;-41
2023/10/02 06:29:22;;;;;;;;;;;;;;;28.78;74.41;100758.47;5001481;28;70611;-41
2023/10/02 06:31:58;;;;;;;;;;;;;;;28.78;74.77;100753.06;5011692;28;65824;-42
2023/10/02 06:34:37;;;;;;;;;;;;;;;28.77;74.43;100751.38;5017079;28;70326;-39
2023/10/02 06:37:11;;;;;;;;;;;;;;;28.78;75.16;100753.06;5021495;28;66223;-39
2023/10/02 06:39:42;;;;;;;;;;;;;;;28.78;74.52;100742.25;5020376;28;70833;-38
2023/10/02 06:42:19;;;;;;;;;;;;;;;28.77;74.77;100743.28;5013276;28;66109;-39
2023/10/02 06:44:55;;;;;;;;;;;;;;;28.77;75.13;100732.47;5012352;28;69760;-39
2023/10/02 06:47:29;;;;;;;;;;;;;;;28.77;74.58;100729.78;5018753;28;65433;-40
2023/10/02 06:50:35;;;;;;;;;;;;;;;28.77;74.63;100724.38;5014966;28;70624;-39
2023/10/02 06:52:58;;;;;;;;;;;;;;;28.78;74.57;100728.75;5012506;28;66570;-39
2023/10/02 06:55:29;;;;;;;;;;;;;;;28.78;75.05;100714.41;5014885;28;69734;-39
2023/10/02 06:57:59;;;;;;;;;;;;;;;28.78;75.12;100712.56;5016715;28;66388;-38
2023/10/02 07:00:54;;;;;;;;;;;;;;;28.79;75.14;100711.50;5011227;28;70558;-39
2023/10/02 07:03:18;;;;;;;;;;;;;;;28.79;74.82;100708.81;5017515;28;66072;-39
2023/10/02 07:05:48;;;;;;;;;;;;;;;28.79;75.33;100706.13;5012039;28;70101;-39
2023/10/02 07:08:21;;;;;;;;;;;;;;;28.79;74.82;100706.13;5012135;28;65815;-38
2023/10/02 07:10:52;;;;;;;;;;;;;;;28.80;75.36;100702.38;5011692;28;70526;-39
2023/10/02 07:13:23;;;;;;;;;;;;;;;28.81;75.09;100703.22;5011821;28;67917;-39
2023/10/02 07:15:55;;;;;;;;;;;;;;;28.80;75.23;100686.16;5014038;28;69260;-41
2023/10/02 07:18:45;;;;;;;;;;;;;;;28.81;75.56;100693.25;5006000;28;67069;-40
2023/10/02 07:21:21;;;;;;;;;;;;;;;28.81;75.17;100693.25;5018672;28;70564;-38
2023/10/02 07:23:51;;;;;;;;;;;;;;;28.81;75.63;100687.84;5019652;28;65697;-39
2023/10/02 07:26:46;;;;;;;;;;;;;;;28.82;75.66;100684.09;5014290;28;69550;-40
2023/10/02 07:29:11;;;;;;;;;;;;;;;28.82;75.07;100684.09;5016705;28;66043;-39
2023/10/02 07:31:44;;;;;;;;;;;;;;;28.83;75.29;100684.91;5013486;28;69863;-40
2023/10/02 07:34:15;;;;;;;;;;;;;;;28.83;75.77;100685.75;5022425;28;66080;-40
2023/10/02 07:36:45;;;;;;;;;;;;;;;28.82;75.63;100684.09;5013325;28;70275;-39
2023/10/02 07:42:10;;;;;;;;;;;;;;;28.83;75.70;100680.34;5018668;28;69945;-38
2023/10/02 07:44:41;;;;;;;;;;;;;;;28.84;75.45;100679.31;5005211;28;66493;-38
2023/10/02 07:47:16;;;;;;;;;;;;;;;28.85;75.46;100683.66;5020676;28;70441;-38
2023/10/02 07:49:48;;;;;;;;;;;;;;;28.85;75.57;100678.25;5017704;28;65358;-39
2023/10/02 07:52:35;;;;;;;;;;;;;;;28.85;75.27;100683.66;5013021;28;69392;-37
2023/10/02 07:55:10;;;;;;;;;;;;;;;28.87;75.87;100676.19;5015402;28;66418;-39
2023/10/02 07:57:40;;;;;;;;;;;;;;;28.87;75.43;100670.78;5022769;28;70033;-43
2023/10/02 08:03:02;;;;;;;;;;;;;;;28.88;75.50;100660.81;5009892;28;70180;-39
2023/10/02 08:05:35;;;;;;;;;;;;;;;28.89;75.67;100663.31;5018778;28;67234;-40
2023/10/02 08:08:10;;;;;;;;;;;;;;;28.90;75.29;100653.34;5018871;28;70408;-38
2023/10/02 08:10:53;;;;;;;;;;;;;;;28.89;75.30;100649.81;5025558;28;66642;-39
2023/10/02 08:13:48;;;;;;;;;;;;;;;28.90;75.56;100647.94;5020653;28;70468;-38
2023/10/02 08:16:14;;;;;;;;;;;;;;;28.90;75.61;100640.66;5021623;28;66498;-40
2023/10/02 08:19:04;;;;;;;;;;;;;;;28.90;75.33;100627.16;5014690;28;68942;-40
2023/10/02 08:21:37;;;;;;;;;;;;;;;28.91;75.84;100626.13;5019195;28;66856;-40
2023/10/02 08:24:10;;;;;;;;;;;;;;;28.91;75.65;100618.00;5021289;28;70325;-38
2023/10/02 08:26:45;;;;;;;;;;;;;;;28.92;75.67;100611.59;5018824;28;67040;-38
2023/10/02 08:29:18;;;;;;;;;;;;;;;28.92;75.72;100603.50;5015571;28;70511;-39
2023/10/02 08:31:53;;;;;;;;;;;;;;;28.93;75.82;100598.91;5018793;28;66423;-38
2023/10/02 08:34:26;;;;;;;;;;;;;;;28.94;75.74;100595.16;5021780;28;69933;-40
2023/10/02 08:37:07;;;;;;;;;;;;;;;28.93;75.82;100594.34;5021022;28;65622;-39
2023/10/02 08:39:41;;;;;;;;;;;;;;;28.94;75.31;100587.06;5019510;28;70311;-39
2023/10/02 08:42:11;;;;;;;;;;;;;;;28.94;75.59;100579.78;5014636;28;67844;-39
2023/10/02 08:44:42;;;;;;;;;;;;;;;28.94;75.31;100573.56;5015895;28;70348;-38
2023/10/02 08:47:24;;;;;;;;;;;;;;;28.95;75.75;100567.13;5016649;28;66758;-39
2023/10/02 08:50:04;;;;;;;;;;;;;;;28.94;75.58;100568.97;5013279;28;69976;-39
2023/10/02 08:52:47;;;;;;;;;;;;;;;28.96;75.75;100571.47;5015673;28;66764;-39
2023/10/02 08:55:33;;;;;;;;;;;;;;;28.96;75.81;100577.69;5012600;28;70214;-40
2023/10/02 08:58:27;;;;;;;;;;;;;;;28.96;75.62;100568.78;5008184;28;66159;-39
2023/10/02 09:03:46;;;;;;;;;;;;;;;28.98;75.42;100573.97;5018821;28;66715;-38
2023/10/02 09:09:16;;;;;;;;;;;;;;;28.97;75.88;100583.94;5025347;28;66747;-38
2023/10/02 09:11:52;;;;;;;;;;;;;;;28.98;75.96;100573.97;5032944;28;70449;-37
2023/10/02 09:14:22;;;;;;;;;;;;;;;28.99;75.44;100570.22;5017583;28;66773;-39
2023/10/02 09:17:12;;;;;;;;;;;;;;;28.99;78.67;100575.63;5018584;28;70439;-40
2023/10/02 09:19:53;;;;;;;;;;;;;;;28.96;81.63;100577.69;5005135;28;66673;-39
2023/10/02 09:22:25;;;;;;;;;;;;;;;28.94;82.13;100579.78;5010369;28;70092;-41
2023/10/02 09:25:35;;;;;;;;;;;;;;;28.91;83.23;100580.22;5016529;28;65984;-41
2023/10/02 09:28:13;;;;;;;;;;;;;;;28.90;83.72;100583.16;5015189;28;69164;-40
2023/10/02 09:30:43;;;;;;;;;;;;;;;28.90;83.69;100583.97;5015022;28;66673;-39
2023/10/02 09:33:37;;;;;;;;;;;;;;;28.91;84.16;100585.63;5012029;28;70501;-40
2023/10/02 09:36:35;;;;;;;;;;;;;;;28.92;84.50;100586.47;5012816;28;67009;-40
2023/10/02 09:39:36;;;;;;;;;;;;;;;28.92;84.97;100587.28;5015326;28;70549;-40
2023/10/02 09:42:07;;;;;;;;;;;;;;;28.93;85.41;100593.50;5015904;28;66470;-41
2023/10/02 09:44:42;;;;;;;;;;;;;;;28.93;85.46;100594.34;5018076;28;70336;-40
2023/10/02 09:47:13;;;;;;;;;;;;;;;28.95;85.84;100603.06;5021072;28;66865;-39
2023/10/02 09:49:48;;;;;;;;;;;;;;;28.95;85.64;100603.06;5017894;28;70885;-40
2023/10/02 09:52:25;;;;;;;;;;;;;;;28.95;85.84;100607.63;5008438;28;66745;-39
2023/10/02 09:55:04;;;;;;;;;;;;;;;28.98;85.75;100606.38;5009425;28;70312;-40
2023/10/02 09:57:38;;;;;;;;;;;;;;;28.98;85.97;100614.47;5008818;28;66657;-42
2023/10/02 10:00:53;;;;;;;;;;;;;;;28.99;86.39;100613.44;5009441;28;69402;-41
2023/10/02 10:03:31;;;;;;;;;;;;;;;29.02;86.03;100629.19;4999568;28;66444;-40
2023/10/02 10:06:15;;;;;;;;;;;;;;;29.02;86.60;100635.44;4992391;28;69748;-40
2023/10/02 10:11:42;;;;;;;;;;;;;;;29.03;86.50;100644.34;5018615;28;69743;-40
2023/10/02 10:14:36;;;;;;;;;;;;;;;29.03;87.24;100664.13;5006623;28;65614;-40
2023/10/02 10:17:16;;;;;;;;;;;;;;;29.04;86.78;100670.38;5009670;28;70506;-41
2023/10/02 10:20:18;;;;;;;;;;;;;;;29.06;87.61;100679.06;5007419;28;66372;-40
2023/10/02 10:22:55;;;;;;;;;;;;;;;29.09;87.20;100686.75;5014555;28;69813;-40
2023/10/02 10:25:33;;;;;;;;;;;;;;;29.10;87.60;100691.94;5014965;28;66005;-39
2023/10/02 10:28:08;;;;;;;;;;;;;;;29.12;87.35;100699.84;5006398;28;70816;-40
2023/10/02 10:30:42;;;;;;;;;;;;;;;29.14;87.66;100709.41;5016136;28;66895;-40
2023/10/02 10:33:20;;;;;;;;;;;;;;;29.15;87.56;100718.31;5016805;28;70355;-40
2023/10/02 10:35:57;;;;;;;;;;;;;;;29.16;87.56;100725.38;4996975;28;65457;-39
2023/10/02 10:38:36;;;;;;;;;;;;;;;29.18;88.29;100731.41;5013246;28;70341;-40
2023/10/02 10:41:09;;;;;;;;;;;;;;;29.21;88.14;100747.19;5009472;28;65265;-41
2023/10/02 10:43:46;;;;;;;;;;;;;;;29.22;87.90;100748.81;5009471;28;70072;-41
2023/10/02 10:46:16;;;;;;;;;;;;;;;29.22;88.14;100765.03;5014365;28;66332;-40
2023/10/02 10:49:41;;;;;;;;;;;;;;;29.22;89.79;100775.00;5013365;28;69579;-39
2023/10/02 10:52:24;;;;;;;;;;;;;;;29.24;89.85;100781.88;5009083;28;66213;-40
2023/10/02 10:54:53;;;;;;;;;;;;;;;29.23;90.18;100799.13;5024971;28;70047;-40
2023/10/02 10:57:29;;;;;;;;;;;;;;;29.24;90.18;100800.78;5024678;28;65793;-40
2023/10/02 11:00:24;;;;;;;;;;;;;;;29.25;90.60;100801.59;5015256;28;70198;-40
2023/10/02 11:02:57;;;;;;;;;;;;;;;29.27;90.23;100811.16;5012690;28;66581;-40
2023/10/02 11:05:33;;;;;;;;;;;;;;;29.29;90.58;100810.97;5017914;28;69806;-41
2023/10/02 11:08:25;;;;;;;;;;;;;;;29.28;90.49;100815.53;5016609;28;65981;-41
2023/10/02 11:11:04;;;;;;;;;;;;;;;29.27;89.11;100818.44;5023625;28;69663;-40
2023/10/02 11:14:00;;;;;;;;;;;;;;;29.29;88.78;100824.47;5023869;28;66852;-41
2023/10/02 11:16:34;;;;;;;;;;;;;;;29.30;88.25;100826.94;5019544;28;70722;-42
2023/10/02 11:19:57;;;;;;;;;;;;;;;29.33;87.80;100841.91;5025483;28;66987;-41
2023/10/02 11:24:48;;;;;;;;;;;;;;;29.36;86.84;100841.47;5021654;28;66451;-40
2023/10/02 11:27:18;;;;;;;;;;;;;;;29.36;86.58;100847.75;5016311;28;69970;-41
2023/10/02 11:30:03;;;;;;;;;;;;;;;29.37;85.89;100854.78;5019828;28;65597;-40
2023/10/02 11:32:58;;;;;;;;;;;;;;;29.38;86.07;100851.03;5021264;28;69804;-40
2023/10/02 11:35:29;;;;;;;;;;;;;;;29.39;86.13;100852.72;5025210;28;66572;-41
2023/10/02 11:38:01;;;;;;;;;;;;;;;29.39;85.99;100863.53;5025699;28;70020;-40
2023/10/02 11:40:32;;;;;;;;;;;;;;;29.39;86.13;100871.63;5020743;28;66235;-40
2023/10/02 11:43:03;;;;;;;;;;;;;;;29.38;89.17;100883.47;5021194;28;70092;-41
2023/10/02 11:45:33;;;;;;;;;;;;;;;29.35;90.10;100883.88;5022535;28;65978;-41
2023/10/02 11:48:04;;;;;;;;;;;;;;;29.27;89.95;100886.81;5022709;28;68829;-40
2023/10/02 11:50:33;;;;;;;;;;;;;;;29.23;90.92;100893.69;5017710;28;65708;-41
2023/10/02 11:53:04;;;;;;;;;;;;;;;29.20;90.89;100894.09;5019281;28;70351;-40
2023/10/02 11:55:33;;;;;;;;;;;;;;;29.22;89.37;100889.31;5016174;28;66845;-41
2023/10/02 11:58:04;;;;;;;;;;;;;;;29.24;89.16;100889.94;5025792;28;70416;-41
2023/10/02 12:00:34;;;;;;;;;;;;;;;29.27;88.15;100896.78;5023729;28;66535;-40
2023/10/02 12:03:04;;;;;;;;;;;;;;;29.29;88.10;100890.13;5017205;28;70530;-42
2023/10/02 12:05:36;;;;;;;;;;;;;;;29.31;87.83;100890.78;5020963;28;66660;-42
2023/10/02 12:08:07;;;;;;;;;;;;;;;29.32;87.29;100887.00;5013631;28;70850;-41
2023/10/02 12:10:39;;;;;;;;;;;;;;;29.33;87.31;100888.66;5028163;28;66943;-41
2023/10/02 12:13:09;;;;;;;;;;;;;;;29.35;86.72;100892.00;5017304;28;70441;-40
2023/10/02 12:15:38;;;;;;;;;;;;;;;29.36;86.80;100900.94;5027184;28;66980;-40
2023/10/02 12:18:08;;;;;;;;;;;;;;;29.36;87.03;100896.38;5024544;28;70184;-41
2023/10/02 12:20:42;;;;;;;;;;;;;;;29.36;87.03;100893.69;5022199;28;66096;-41
2023/10/02 12:23:14;;;;;;;;;;;;;;;29.37;86.27;100891.81;5012492;28;70387;-41
2023/10/02 12:25:48;;;;;;;;;;;;;;;29.37;86.84;100892.63;5017060;28;65433;-40
2023/10/02 12:28:18;;;;;;;;;;;;;;;29.38;86.79;100893.44;5009412;28;70624;-41
2023/10/02 12:30:48;;;;;;;;;;;;;;;29.30;88.97;100894.50;4999837;28;66359;-40
2023/10/02 12:33:19;;;;;;;;;;;;;;;29.14;91.02;100890.38;5016579;28;70436;-40
2023/10/02 12:35:49;;;;;;;;;;;;;;;29.04;91.80;100895.34;5018327;28;66278;-40
2023/10/02 12:38:18;;;;;;;;;;;;;;;28.98;92.68;100898.03;5030287;28;70545;-41
2023/10/02 12:40:49;;;;;;;;;;;;;;;28.92;92.77;100900.50;5017386;28;66818;-41
2023/10/02 12:43:19;;;;;;;;;;;;;;;28.88;92.93;100904.63;5021176;28;70315;-41
2023/10/02 12:45:49;;;;;;;;;;;;;;;28.86;93.37;100905.88;5017263;28;66276;-40
2023/10/02 12:48:19;;;;;;;;;;;;;;;28.83;93.47;100904.41;5035664;28;70537;-39
2023/10/02 12:50:49;;;;;;;;;;;;;;;28.83;93.92;100906.28;5027915;28;66248;-40
2023/10/02 12:53:27;;;;;;;;;;;;;;;28.80;94.36;100906.72;5012379;28;69605;-40
2023/10/02 12:55:58;;;;;;;;;;;;;;;28.77;94.37;100905.25;5021578;28;66243;-40
2023/10/02 12:58:27;;;;;;;;;;;;;;;28.77;93.89;100917.94;5018104;28;70042;-41
2023/10/02 13:00:57;;;;;;;;;;;;;;;28.73;94.35;100917.50;5025774;28;67101;-40
2023/10/02 13:03:28;;;;;;;;;;;;;;;28.75;94.03;100920.81;5017955;28;69847;-40
2023/10/02 13:05:59;;;;;;;;;;;;;;;28.76;94.46;100927.06;5024267;28;66222;-39
2023/10/02 13:08:29;;;;;;;;;;;;;;;28.75;94.57;100926.22;5017097;28;69514;-41
2023/10/02 13:10:59;;;;;;;;;;;;;;;28.75;94.15;100931.63;5015341;28;66668;-41
2023/10/02 13:13:30;;;;;;;;;;;;;;;28.75;94.17;100937.00;5019994;28;70542;-41
2023/10/02 13:16:00;;;;;;;;;;;;;;;28.76;94.74;100927.06;5011026;28;66079;-40
2023/10/02 13:18:30;;;;;;;;;;;;;;;28.76;94.20;100927.91;5009920;28;70666;-41
2023/10/02 13:21:01;;;;;;;;;;;;;;;28.79;94.78;100934.75;5021960;28;66017;-41
2023/10/02 13:23:31;;;;;;;;;;;;;;;28.88;94.53;100931.66;5020799;28;70648;-40
2023/10/02 13:26:04;;;;;;;;;;;;;;;28.91;94.54;100936.63;5021186;28;65601;-40
2023/10/02 13:28:35;;;;;;;;;;;;;;;28.94;94.34;100943.50;5008298;28;69905;-41
2023/10/02 13:31:11;;;;;;;;;;;;;;;28.96;94.17;100944.94;5009006;28;65695;-39
2023/10/02 13:33:46;;;;;;;;;;;;;;;29.00;94.23;100955.34;5009574;28;69226;-42
2023/10/02 13:36:22;;;;;;;;;;;;;;;29.03;94.21;100961.22;5008880;28;65588;-39
2023/10/02 13:38:54;;;;;;;;;;;;;;;29.02;93.60;100969.47;5011962;28;70058;-39
2023/10/02 13:41:25;;;;;;;;;;;;;;;29.04;94.10;100972.84;5012243;28;67111;-40
2023/10/02 13:43:55;;;;;;;;;;;;;;;29.02;93.58;100978.41;5024881;28;69184;-39
2023/10/02 13:46:25;;;;;;;;;;;;;;;29.01;94.02;100984.03;5016492;28;65871;-38
2023/10/02 13:48:55;;;;;;;;;;;;;;;29.04;93.47;100991.75;5016650;28;69927;-41
2023/10/02 13:51:25;;;;;;;;;;;;;;;29.03;93.78;100993.63;5023364;28;66628;-41
2023/10/02 13:53:56;;;;;;;;;;;;;;;29.03;93.70;101004.44;5020273;28;69671;-41
2023/10/02 13:56:26;;;;;;;;;;;;;;;29.02;93.89;101013.50;5014748;28;65876;-39
2023/10/02 13:58:56;;;;;;;;;;;;;;;29.02;94.55;101013.50;5021458;28;70031;-39
2023/10/02 14:01:27;;;;;;;;;;;;;;;29.02;94.51;101023.47;5007994;28;66702;-39
2023/10/02 14:03:56;;;;;;;;;;;;;;;29.00;94.16;101026.38;5012966;28;69610;-40
2023/10/02 14:06:28;;;;;;;;;;;;;;;28.99;94.57;101027.44;5007658;28;66993;-39
2023/10/02 14:08:59;;;;;;;;;;;;;;;29.01;94.88;101024.53;5013101;28;69390;-37